Bowling Green, Illinois
Current Conditions -  °F | °C
As of 10:55 AM on Thursday 30 Oct 2014 (Local Time) from K1H2 Reporting Station
Clear Clear  
Wind Chill: 50°   Ceiling: Unl
Heat Index: 50°   Visibility: 10mi
Dew Point: 35°   Wind: 7mph
Humidity: 55%   Direction: 130°SE
Pressure: 30.15"   Gusts: NA
Location:  39.2184°N, 88.9038°W
Report Text: K1H2 301555Z AUTO 13006KT 10SM CLR 10/01 A3015 RMK AO2 T01010014
Loading
Personal Weather Stations






























Interactive Weather Map New forecast layout! Learn more

10-Day Weather Forecast

Advertisements
Track Severe Weather on mobile